Briefing drone pour Mazamet

Rechercher une autre localisation

Conditions de vol :


Nous sommes le : Samedi 13 avril 2024
Il est 23:53 UTC (01:53 LT)

Lever de soleil : 04:43 UTC (06:43 LT)
Coucher de soleil : 18:58 UTC (20:58 LT)

Météo

L'essentiel des conditions de vol

VIGILANCE MÉTÉO FRANCE - Tarn (81)
Pas de vigilances particulieres
CARTE TEMSI
CARTES DES FRONTS
METAR de LFMK
LFMK 122330Z AUTO VRB02KT CAVOK 10/08 Q1029

Date d'émission: 12/04/2024
Heure d'émission: 23:30 UTC
Vent: Variable 2 KT (4 km/h)
Visibilité horizontale: > 10 km
Plafond : Plafond et visibilité OK (CAVOK)
Température: 10 °C
Point de rosée: 8 °C
Humidité: 87%
Pression (QNH): 1029 hPa
TAF de LFMK
LFMK 121804Z 1218/1315 CNL

Conditions prévues :

Heure d'émission : Bulletin éffectué le 12 à 18:00 UTC
Prévision : Valide du 12 a 18:00 UTC au 13 a 15:00 UTC
Nuages : à 0ft (0 m)
WEBCAM POUR MAZAMET

Réglementation

Voler en sécurité

CARTES AERONAUTIQUE 1/500.000
CARTE AZBA (Reseau basse altitude)
CARTES VAC (LFMK)
SUP AIP




Chargement des AIP...
NOTAM (MAZAMET + Terrain à proximité / FIR )




Chargement des NOTAMS...
CONTACT PREFECTURE 81
Tarn (81) : [email protected]


Avertissement : Les données mises à disposition sont indicatives. Oxygène Drone ne pourra être tenu responsable de dégâts causés aux biens et aux personnes.